Time;durP1;ratioP1;P1;durP2;ratioP2;P2;SDS_P1;SDS_P2;PMS_P1;PMS_P2;Temp;Humidity;BMP_temperature;BMP_pressure;BME280_temperature;BME280_humidity;BME280_pressure;Samples;Min_cycle;Max_cycle;Signal;HPM_P1;HPM_P2
2021/04/13 09:21:03;;;;;;;3.97;2.03;;;23.60;32.50;;;;;;5047778;28;20378;-71
2021/04/13 09:23:34;;;;;;;6.80;2.17;;;39.00;17.50;;;;;;5044820;28;20101;-66
2021/04/13 09:26:09;;;;;;;7.53;2.00;;;39.20;17.30;;;;;;5033949;28;20034;-68
2021/04/13 09:28:45;;;;;;;3.25;1.80;;;29.50;23.30;;;;;;5040181;28;20048;-68
2021/04/13 09:31:11;;;;;;;3.50;1.83;;;26.00;27.50;;;;;;5068929;28;20021;-67
2021/04/13 09:33:38;;;;;;;5.07;1.98;;;24.20;30.00;;;;;;5027170;28;20018;-65
2021/04/13 09:36:28;;;;;;;6.00;2.17;;;23.90;30.30;;;;;;5028462;28;20026;-66
2021/04/13 09:39:35;;;;;;;4.50;1.70;;;23.50;31.00;;;;;;5040119;28;20026;-68
2021/04/13 09:42:16;;;;;;;3.17;1.73;;;23.60;30.50;;;;;;5039416;28;20076;-68
2021/04/13 09:44:56;;;;;;;6.18;1.98;;;23.10;32.00;;;;;;5050884;28;20510;-67
2021/04/13 09:47:37;;;;;;;;;;;23.20;31.20;;;;;;5043005;28;20025;-68
2021/04/13 09:50:34;;;;;;;4.47;1.83;;;23.30;31.30;;;;;;5029104;28;19905;-67
2021/04/13 09:53:31;;;;;;;4.05;1.90;;;23.30;30.90;;;;;;5029022;28;20040;-70
2021/04/13 09:56:30;;;;;;;2.78;1.80;;;23.50;30.80;;;;;;5032390;28;20087;-67
2021/04/13 09:59:16;;;;;;;4.15;1.80;;;23.30;31.40;;;;;;5031898;28;20043;-69
2021/04/13 10:01:48;;;;;;;3.03;1.60;;;23.30;31.20;;;;;;5026617;28;20030;-69
2021/04/13 10:04:41;;;;;;;4.60;1.80;;;23.30;31.00;;;;;;5028197;28;20084;-71
2021/04/13 10:07:26;;;;;;;2.60;1.60;;;23.00;31.70;;;;;;5032691;28;20030;-67
2021/04/13 10:09:53;;;;;;;5.18;1.80;;;23.00;32.00;;;;;;5026510;28;20033;-69
2021/04/13 18:55:09;;;;;;;5.97;2.80;;;16.40;23.80;;;;;;5143480;27;20416;-63
2021/04/13 18:57:38;;;;;;;6.13;3.10;;;14.80;27.20;;;;;;5100433;27;20415;-63
2021/04/13 19:00:08;;;;;;;5.70;2.88;;;14.00;27.40;;;;;;5066485;27;20147;-64
2021/04/13 19:03:03;;;;;;;5.10;2.72;;;13.60;28.00;;;;;;5101320;28;20016;-63
2021/04/13 19:05:31;;;;;;;5.20;2.65;;;13.30;28.40;;;;;;5092904;28;20028;-66
2021/04/13 19:08:18;;;;;;;6.82;2.53;;;13.10;28.80;;;;;;5104871;28;20533;-64
2021/04/13 19:10:58;;;;;;;5.05;2.60;;;12.80;29.90;;;;;;5104016;28;20023;-64
2021/04/13 19:13:32;;;;;;;5.93;2.63;;;12.70;29.60;;;;;;5102389;28;20024;-63
2021/04/13 19:16:03;;;;;;;5.45;2.80;;;12.60;29.90;;;;;;5102280;28;20023;-65
2021/04/13 19:18:33;;;;;;;;;;;12.50;31.40;;;;;;5102210;28;20028;-67
2021/04/13 19:21:13;;;;;;;7.80;3.28;;;12.40;31.10;;;;;;5104574;28;19958;-65
2021/04/13 19:23:44;;;;;;;6.80;3.20;;;12.30;31.50;;;;;;5104633;28;20026;-64
2021/04/13 19:26:27;;;;;;;6.22;3.17;;;12.20;31.70;;;;;;5124594;28;20031;-64
2021/04/13 19:29:03;;;;;;;8.35;3.30;;;12.20;32.30;;;;;;5125305;28;20027;-64
2021/04/13 19:31:41;;;;;;;7.30;3.60;;;12.20;32.70;;;;;;5119471;28;20031;-63
2021/04/13 19:34:18;;;;;;;5.63;3.20;;;12.10;33.20;;;;;;5108800;28;20024;-64
2021/04/13 19:36:58;;;;;;;8.85;3.65;;;12.10;33.30;;;;;;5077110;28;20048;-64
2021/04/13 19:39:25;;;;;;;8.93;3.67;;;12.10;33.60;;;;;;5141233;27;20566;-64
2021/04/13 19:42:06;;;;;;;9.00;4.07;;;12.00;33.60;;;;;;5133242;27;20102;-64
2021/04/13 19:44:37;;;;;;;6.88;3.70;;;11.90;34.10;;;;;;5145755;27;20019;-64
2021/04/13 19:47:07;;;;;;;7.13;3.83;;;11.90;34.60;;;;;;5121818;27;20039;-64
2021/04/13 19:49:34;;;;;;;8.75;3.90;;;11.90;35.50;;;;;;5124842;28;20031;-63
2021/04/13 19:52:08;;;;;;;6.72;3.42;;;11.90;34.90;;;;;;5139196;27;20046;-64
2021/04/13 19:54:41;;;;;;;7.90;4.00;;;11.80;34.80;;;;;;5107473;27;20043;-64
2021/04/13 19:57:13;;;;;;;7.40;3.90;;;11.80;35.30;;;;;;5117255;28;20055;-65
2021/04/13 19:59:45;;;;;;;7.68;3.90;;;11.70;35.30;;;;;;5124968;27;20041;-63
2021/04/13 20:02:20;;;;;;;8.45;4.03;;;11.70;35.30;;;;;;5112140;27;20059;-63
2021/04/13 20:04:47;;;;;;;7.90;4.10;;;11.70;35.60;;;;;;5114219;28;20043;-63
2021/04/13 20:07:13;;;;;;;10.15;4.07;;;11.70;35.50;;;;;;5110707;28;20027;-63
2021/04/13 20:09:41;;;;;;;8.70;4.60;;;11.70;35.70;;;;;;5124929;27;20102;-63
2021/04/13 20:12:10;;;;;;;8.70;4.38;;;11.70;35.90;;;;;;5090865;28;20119;-63
2021/04/13 20:14:48;;;;;;;8.77;4.10;;;11.60;35.90;;;;;;5044498;27;20052;-63
2021/04/13 20:17:36;;;;;;;6.95;3.97;;;11.60;35.90;;;;;;5070006;28;20036;-68
2021/04/13 20:20:15;;;;;;;6.97;3.65;;;11.60;35.90;;;;;;5068045;28;20543;-68
2021/04/13 20:22:47;;;;;;;7.20;4.10;;;11.50;36.20;;;;;;5068763;28;20541;-63
2021/04/13 20:25:29;;;;;;;7.50;3.88;;;11.50;36.30;;;;;;5071674;28;20244;-63
2021/04/13 20:27:58;;;;;;;9.02;4.20;;;11.50;36.40;;;;;;5070521;28;20032;-62
2021/04/13 20:30:36;;;;;;;7.43;3.92;;;11.40;36.40;;;;;;5090860;28;20073;-63
2021/04/13 20:33:37;;;;;;;7.72;4.00;;;11.40;36.40;;;;;;5089979;28;20060;-61
2021/04/13 20:38:46;;;;;;;8.10;4.07;;;11.40;36.30;;;;;;5079587;28;20055;-63
2021/04/13 20:41:38;;;;;;;8.05;3.78;;;11.40;36.40;;;;;;5089765;28;20028;-63
2021/04/13 20:44:08;;;;;;;7.57;4.00;;;11.30;36.10;;;;;;5087437;28;20024;-63
2021/04/13 20:46:38;;;;;;;7.60;3.97;;;11.30;36.10;;;;;;5091162;28;20020;-63
2021/04/13 20:49:08;;;;;;;;;;;11.30;36.30;;;;;;5091591;28;20052;-63
2021/04/13 20:51:38;;;;;;;9.18;4.50;;;11.30;36.30;;;;;;5090200;28;19907;-63
2021/04/13 20:54:15;;;;;;;8.32;4.28;;;11.20;36.50;;;;;;5089560;28;20450;-63
2021/04/13 20:56:54;;;;;;;7.70;3.80;;;11.20;36.40;;;;;;5097844;28;20028;-63
2021/04/13 20:59:23;;;;;;;7.68;4.03;;;11.20;36.60;;;;;;5088446;28;20099;-63
2021/04/13 21:02:07;;;;;;;8.50;4.07;;;11.20;36.70;;;;;;5099404;28;20031;-64
2021/04/13 21:04:44;;;;;;;8.00;4.20;;;11.10;36.60;;;;;;5090370;28;20019;-66
2021/04/13 21:07:19;;;;;;;8.40;4.20;;;11.10;36.50;;;;;;5099049;28;20116;-63
2021/04/13 21:09:54;;;;;;;8.73;4.38;;;11.10;36.60;;;;;;5103993;28;20024;-63
2021/04/13 21:12:20;;;;;;;8.57;3.95;;;11.10;36.80;;;;;;5099447;28;20028;-63
2021/04/13 21:15:18;;;;;;;8.55;4.45;;;11.00;36.60;;;;;;5103875;28;20495;-63
2021/04/13 21:17:48;;;;;;;7.97;4.18;;;11.00;36.90;;;;;;5096991;28;20066;-63
2021/04/13 21:20:16;;;;;;;8.18;4.10;;;11.00;37.10;;;;;;5101342;28;20030;-63
2021/04/13 21:22:55;;;;;;;7.82;4.18;;;10.90;36.90;;;;;;5101184;28;20012;-63
2021/04/13 21:25:36;;;;;;;8.30;4.75;;;10.90;37.10;;;;;;5101962;28;20020;-63
2021/04/13 21:28:27;;;;;;;8.63;4.18;;;10.90;37.50;;;;;;5100391;28;20027;-63
2021/04/13 21:30:54;;;;;;;8.02;4.40;;;10.80;37.50;;;;;;5101217;28;20357;-63
2021/04/13 21:33:24;;;;;;;9.32;4.28;;;10.80;37.50;;;;;;5106711;28;20042;-63
2021/04/13 21:35:55;;;;;;;9.05;4.40;;;10.80;37.60;;;;;;5095749;28;20081;-63
2021/04/13 21:38:31;;;;;;;7.95;4.38;;;10.80;37.90;;;;;;5084207;28;20027;-63
2021/04/13 21:41:01;;;;;;;8.98;4.75;;;10.70;37.90;;;;;;5103410;27;20035;-62
2021/04/13 21:43:40;;;;;;;7.75;4.60;;;10.70;38.00;;;;;;5084745;28;20040;-62
2021/04/13 21:46:42;;;;;;;8.95;4.80;;;10.70;38.20;;;;;;5088408;28;20024;-61
2021/04/13 21:49:14;;;;;;;8.40;4.72;;;10.70;38.60;;;;;;5065441;28;20040;-62
2021/04/13 21:52:04;;;;;;;9.25;5.20;;;10.70;38.70;;;;;;5060902;28;20212;-61
2021/04/13 21:54:38;;;;;;;8.57;5.13;;;10.60;38.90;;;;;;5065203;28;20086;-61
2021/04/13 21:57:12;;;;;;;9.40;5.18;;;10.60;39.00;;;;;;5064609;28;20028;-61
2021/04/13 21:59:49;;;;;;;10.85;5.75;;;10.60;39.20;;;;;;5065612;28;20060;-62
2021/04/13 22:02:19;;;;;;;10.60;5.93;;;10.50;39.50;;;;;;5065133;28;20573;-63
2021/04/13 22:04:44;;;;;;;10.77;6.07;;;10.50;39.70;;;;;;5054649;28;20045;-62
2021/04/13 22:07:21;;;;;;;11.00;6.10;;;10.50;39.80;;;;;;5065447;28;20451;-61
2021/04/13 22:09:51;;;;;;;10.38;5.65;;;10.40;40.20;;;;;;5065681;28;20102;-61
2021/04/13 22:12:21;;;;;;;10.27;6.00;;;10.40;40.20;;;;;;5065096;28;20036;-61
2021/04/13 22:14:50;;;;;;;10.82;6.10;;;10.50;40.30;;;;;;5065196;28;20119;-62
2021/04/13 22:17:40;;;;;;;9.80;6.10;;;10.40;40.20;;;;;;5064736;28;20028;-62
2021/04/13 22:20:24;;;;;;;10.73;5.90;;;10.40;41.70;;;;;;5042022;28;20531;-62
2021/04/13 22:22:50;;;;;;;10.43;6.30;;;10.40;40.80;;;;;;5023018;28;69632;-62
2021/04/13 22:25:22;;;;;;;10.40;6.10;;;10.40;41.00;;;;;;5045686;28;20049;-62
2021/04/13 22:27:58;;;;;;;9.90;6.28;;;10.30;41.00;;;;;;5055483;28;20032;-62
2021/04/13 22:30:36;;;;;;;12.73;6.95;;;10.30;41.20;;;;;;5067105;28;20594;-62
2021/04/13 22:33:10;;;;;;;11.15;6.70;;;10.30;41.50;;;;;;5065722;28;20016;-62
2021/04/13 22:35:50;;;;;;;12.50;6.75;;;10.20;41.60;;;;;;5055910;28;20515;-62
2021/04/13 22:38:57;;;;;;;11.70;6.70;;;10.20;41.90;;;;;;5059227;28;20057;-63
2021/04/13 22:41:28;;;;;;;11.00;6.90;;;10.20;42.00;;;;;;5027616;28;20096;-61
2021/04/13 22:44:07;;;;;;;12.00;7.63;;;10.10;43.40;;;;;;4996046;27;60888;-61
2021/04/13 22:46:51;;;;;;;10.30;6.85;;;10.10;42.80;;;;;;4989417;28;20130;-62
2021/04/13 22:49:36;;;;;;;11.27;6.85;;;10.00;42.80;;;;;;4990119;28;20049;-62
2021/04/13 22:52:36;;;;;;;10.98;6.65;;;10.00;43.00;;;;;;4982971;28;20052;-62
2021/04/13 22:55:31;;;;;;;11.05;6.95;;;10.00;43.00;;;;;;4990568;27;20605;-62
2021/04/13 22:58:07;;;;;;;11.88;7.15;;;10.00;43.10;;;;;;5004264;28;20413;-62
2021/04/13 23:03:04;;;;;;;12.02;7.45;;;10.00;43.10;;;;;;5003386;27;20559;-63
2021/04/13 23:05:30;;;;;;;11.80;6.93;;;10.00;43.60;;;;;;4965546;28;62832;-62
2021/04/13 23:07:57;;;;;;;11.63;7.38;;;10.00;43.80;;;;;;4978932;28;20034;-63
2021/04/13 23:10:26;;;;;;;12.93;7.50;;;9.90;43.80;;;;;;4974435;28;20506;-63
2021/04/13 23:12:52;;;;;;;13.88;7.50;;;9.90;43.90;;;;;;4969327;28;20042;-62
2021/04/13 23:16:37;;;;;;;12.70;7.30;;;9.90;45.00;;;;;;4995232;27;20347;-62
2021/04/13 23:19:03;;;;;;;12.02;7.38;;;9.90;44.40;;;;;;5026937;28;20045;-62
2021/04/13 23:21:29;;;;;;;11.98;7.32;;;9.90;44.20;;;;;;5043574;28;20025;-62
2021/04/13 23:23:55;;;;;;;11.73;7.22;;;9.90;44.30;;;;;;5042276;28;20025;-62
2021/04/13 23:26:21;;;;;;;12.82;7.55;;;9.90;44.40;;;;;;5042108;28;20334;-61
2021/04/13 23:28:46;;;;;;;13.05;7.97;;;9.80;44.70;;;;;;5041635;28;20048;-62
2021/04/13 23:31:12;;;;;;;13.80;7.50;;;9.80;44.90;;;;;;5040286;28;20020;-62
2021/04/13 23:33:39;;;;;;;12.20;7.65;;;9.70;45.00;;;;;;5046249;28;20033;-62
2021/04/13 23:36:05;;;;;;;13.50;7.55;;;9.70;44.90;;;;;;5046965;28;20025;-61
2021/04/13 23:38:31;;;;;;;13.68;7.40;;;9.70;44.70;;;;;;5029489;28;20018;-61
2021/04/13 23:40:56;;;;;;;12.30;7.90;;;9.70;45.00;;;;;;5029235;28;20025;-61
2021/04/13 23:43:22;;;;;;;11.45;7.53;;;9.80;45.30;;;;;;5043852;28;20510;-61
2021/04/13 23:45:48;;;;;;;12.65;7.18;;;9.70;45.30;;;;;;5047897;28;20036;-61
2021/04/13 23:48:14;;;;;;;13.27;7.75;;;9.70;45.50;;;;;;5047731;28;20060;-62
2021/04/13 23:50:40;;;;;;;12.77;7.45;;;9.70;45.70;;;;;;5048137;28;20025;-61
2021/04/13 23:53:06;;;;;;;15.52;7.72;;;9.70;45.60;;;;;;5047953;28;20405;-61
2021/04/13 23:55:32;;;;;;;12.40;7.97;;;9.60;46.00;;;;;;5043960;28;20052;-61
2021/04/13 23:57:57;;;;;;;13.05;7.90;;;9.60;46.10;;;;;;5047939;28;20119;-61
